createdAt,value
2018-07-07T05:39:17.275Z,100412.77
2018-07-07T05:41:51.578Z,100420.16
2018-07-07T06:19:29.749Z,100428.97
2018-07-07T06:48:45.773Z,100430.31
2018-07-07T06:51:23.298Z,100421.42
2018-07-07T06:54:01.768Z,100418.91
2018-07-07T06:56:40.845Z,100414.91
2018-07-07T06:59:21.234Z,100421.86
2018-07-07T07:01:59.760Z,100419.84
2018-07-07T07:04:38.325Z,100412.49
2018-07-07T07:07:17.302Z,100408.70
2018-07-07T07:09:57.706Z,100404.06
2018-07-07T07:32:59.594Z,100419.20
2018-07-07T07:36:18.521Z,100418.97
2018-07-07T07:58:53.103Z,100421.82
2018-07-07T08:01:33.272Z,100418.30
2018-07-07T08:04:10.308Z,100413.57
2018-07-07T08:06:47.902Z,100418.28
2018-07-07T08:09:24.537Z,100418.50
2018-07-07T08:12:05.295Z,100420.92
2018-07-07T08:14:44.163Z,100420.43
2018-07-07T08:17:25.714Z,100417.12
2018-07-07T08:20:05.477Z,100421.56
2018-07-07T08:22:44.492Z,100419.02
2018-07-07T08:25:23.900Z,100426.85
2018-07-07T08:28:03.150Z,100425.25
2018-07-07T08:30:46.666Z,100418.89
2018-07-07T08:33:29.603Z,100421.30
2018-07-07T08:36:07.662Z,100412.39
2018-07-07T08:38:44.791Z,100404.49
2018-07-07T08:41:24.052Z,100401.41
2018-07-07T08:44:03.567Z,100401.88
2018-07-07T08:46:43.418Z,100410.59
2018-07-07T08:49:22.009Z,100417.91
2018-07-07T09:05:17.853Z,100412.83
2018-07-07T09:07:55.894Z,100414.25
2018-07-07T09:10:33.303Z,100415.17
2018-07-07T09:13:13.490Z,100410.48
2018-07-07T09:15:49.377Z,100410.85
2018-07-07T09:18:34.997Z,100408.51
2018-07-07T09:37:03.536Z,100389.94
2018-07-07T09:39:40.891Z,100378.25
2018-07-07T09:42:21.340Z,100374.52
2018-07-07T09:44:59.864Z,100371.31
2018-07-07T09:47:44.732Z,100368.71
